Time;durP1;ratioP1;P1;durP2;ratioP2;P2;SDS_P1;SDS_P2;PMS_P1;PMS_P2;Temp;Humidity;BMP_temperature;BMP_pressure;BME280_temperature;BME280_humidity;BME280_pressure;Samples;Min_cycle;Max_cycle;Signal;HPM_P1;HPM_P2
2022/01/13 07:47:59;;;;;;;;;24.00;19.00;;;;;11.35;48.90;103652.06;5093523;27;45516;-86
2022/01/13 07:50:24;;;;;;;;;21.33;20.00;;;;;11.48;48.26;103633.13;5081426;27;45539;-88
2022/01/13 07:52:49;;;;;;;;;21.33;21.00;;;;;11.79;48.36;103650.97;5068202;27;45563;-87
2022/01/13 07:55:15;;;;;;;;;28.00;24.67;;;;;11.99;47.70;103654.91;5070042;27;45481;-87
2022/01/13 07:57:40;;;;;;;;;23.67;21.67;;;;;12.13;46.72;103651.91;5083864;27;45972;-88
2022/01/13 08:00:07;;;;;;;;;20.00;18.67;;;;;12.37;47.52;103669.91;5067865;28;45625;-89
2022/01/13 08:02:33;;;;;;;;;25.00;20.33;;;;;12.53;46.92;103671.22;5070421;27;45703;-87
2022/01/13 08:04:58;;;;;;;;;20.67;19.67;;;;;12.74;46.30;103679.50;5093046;27;45462;-87
2022/01/13 08:07:24;;;;;;;;;19.33;17.00;;;;;12.81;45.75;103668.66;5086568;27;47856;-87
2022/01/13 08:09:49;;;;;;;;;23.33;19.33;;;;;12.72;45.91;103633.38;5082637;27;50036;-87
2022/01/13 08:12:14;;;;;;;;;25.67;22.00;;;;;12.94;45.12;103647.84;5081636;27;45517;-87
2022/01/13 08:14:40;;;;;;;;;23.67;22.00;;;;;13.19;45.11;103673.75;5096736;27;45405;-85
2022/01/13 08:17:07;;;;;;;;;25.33;25.33;;;;;13.39;44.44;103674.91;5088250;27;45434;-85
2022/01/13 08:19:48;;;;;;;;;23.67;21.33;;;;;13.54;45.24;103681.50;5079950;27;45434;-85
2022/01/13 08:22:15;;;;;;;;;21.67;20.33;;;;;13.66;44.89;103663.38;5078885;27;45364;-85
2022/01/13 08:24:41;;;;;;;;;25.00;23.00;;;;;13.63;43.79;103643.91;5086437;27;45573;-88
2022/01/13 08:27:07;;;;;;;;;23.67;23.33;;;;;13.77;44.07;103657.72;5104318;27;45503;-84
2022/01/13 08:29:32;;;;;;;;;22.00;21.33;;;;;13.94;43.70;103667.81;5067058;27;45778;-84
2022/01/13 08:31:58;;;;;;;;;26.33;23.67;;;;;13.81;42.74;103646.88;5110437;27;45529;-86
2022/01/13 08:34:23;;;;;;;;;29.33;23.00;;;;;13.82;42.30;103645.97;5072060;27;45682;-87
2022/01/13 08:36:48;;;;;;;;;22.67;20.67;;;;;13.90;43.43;103652.81;5083025;27;46065;-86
2022/01/13 08:39:14;;;;;;;;;31.67;21.67;;;;;13.97;43.36;103665.00;5090916;27;47205;-89
2022/01/13 08:41:40;;;;;;;;;22.33;19.67;;;;;13.75;43.56;103628.41;5067180;28;48866;-88
2022/01/13 08:44:05;;;;;;;;;24.67;22.33;;;;;13.90;43.04;103658.16;5089821;27;45648;-88
2022/01/13 08:46:31;;;;;;;;;27.67;23.00;;;;;13.90;43.39;103660.81;5088235;27;45586;-88
2022/01/13 08:48:56;;;;;;;;;24.67;22.67;;;;;14.00;43.34;103675.56;5070256;27;47092;-86
2022/01/13 08:51:22;;;;;;;;;22.67;19.00;;;;;13.92;43.72;103672.31;5086416;27;45455;-87
2022/01/13 08:53:48;;;;;;;;;23.33;23.00;;;;;13.93;43.91;103663.38;5067292;27;45401;-87
2022/01/13 08:56:14;;;;;;;;;28.67;22.00;;;;;13.96;43.70;103668.63;5090855;27;46820;-87
2022/01/13 08:58:40;;;;;;;;;19.33;18.67;;;;;13.99;43.66;103672.97;5061466;28;52240;-86
2022/01/13 09:01:07;;;;;;;;;25.00;24.00;;;;;13.84;43.63;103641.44;5069177;28;45489;-85
2022/01/13 09:03:33;;;;;;;;;25.00;25.00;;;;;13.82;44.13;103635.28;5102850;27;45544;-85
2022/01/13 09:05:58;;;;;;;;;29.67;26.67;;;;;14.06;43.09;103675.38;5057093;28;46579;-86
2022/01/13 09:08:23;;;;;;;;;23.00;21.00;;;;;13.93;43.16;103664.25;5074521;28;45479;-86
2022/01/13 09:10:49;;;;;;;;;29.33;27.33;;;;;13.84;43.23;103644.09;5071164;28;45884;-85
2022/01/13 09:13:15;;;;;;;;;21.00;18.33;;;;;13.75;43.60;103641.75;5066569;28;45596;-86
2022/01/13 09:15:47;;;;;;;;;27.00;24.00;;;;;14.00;43.12;103680.06;5070267;28;45699;-86
2022/01/13 09:18:58;;;;;;;;;27.67;24.00;;;;;13.94;43.77;103673.16;5073610;28;45498;-86
2022/01/13 09:20:59;;;;;;;;;20.00;19.00;;;;;13.93;43.51;103663.38;5071936;28;45399;-87
2022/01/13 09:23:24;;;;;;;;;26.00;24.00;;;;;13.92;43.71;103666.97;5084851;27;45392;-86
2022/01/13 09:25:50;;;;;;;;;21.67;20.00;;;;;13.88;44.43;103662.69;5061026;28;46864;-86
2022/01/13 09:28:15;;;;;;;;;24.33;22.00;;;;;14.01;44.30;103682.66;5068972;28;45574;-87
2022/01/13 09:30:40;;;;;;;;;25.33;24.67;;;;;13.95;43.75;103667.75;5086358;27;45408;-89
2022/01/13 09:33:06;;;;;;;;;22.33;20.00;;;;;14.04;44.18;103685.25;5106669;27;45405;-88
2022/01/13 09:35:32;;;;;;;;;25.00;22.00;;;;;13.98;44.56;103665.88;5072040;28;45533;-86
2022/01/13 09:37:57;;;;;;;;;24.33;19.67;;;;;14.06;44.14;103686.03;5070332;28;45578;-85
2022/01/13 09:40:23;;;;;;;;;23.00;21.33;;;;;13.94;44.35;103667.81;5089746;27;45556;-86
2022/01/13 09:42:48;;;;;;;;;27.33;23.67;;;;;14.01;44.17;103682.66;5058351;28;45545;-86
2022/01/13 09:45:16;;;;;;;;;27.67;25.67;;;;;13.98;43.65;103679.22;5069274;28;45535;-86
2022/01/13 09:47:41;;;;;;;;;29.00;25.33;;;;;14.05;43.67;103699.47;5060855;27;45702;-85
2022/01/13 09:50:10;;;;;;;;;26.67;22.00;;;;;13.91;43.80;103671.44;5067529;28;46192;-87
2022/01/13 09:52:39;;;;;;;;;19.67;19.67;;;;;14.00;43.94;103685.41;5051486;28;45458;-87
2022/01/13 09:55:05;;;;;;;;;28.00;25.33;;;;;13.91;44.25;103667.91;5053641;28;45349;-87
2022/01/13 09:57:31;;;;;;;;;26.00;24.00;;;;;13.99;43.94;103678.31;5089958;27;45445;-87
2022/01/13 09:59:58;;;;;;;;;23.67;20.67;;;;;13.77;43.97;103644.38;5054106;28;45432;-85
2022/01/13 10:02:28;;;;;;;;;26.00;23.67;;;;;14.04;43.80;103698.59;5077847;27;45568;-86
2022/01/13 10:04:54;;;;;;;;;26.00;24.67;;;;;13.92;43.79;103683.84;5075617;28;45570;-87
2022/01/13 10:07:37;;;;;;;;;28.67;24.00;;;;;13.89;43.79;103672.41;5069654;28;45846;-87
2022/01/13 10:10:08;;;;;;;;;29.33;27.00;;;;;13.81;44.15;103659.34;5057636;28;45455;-86
2022/01/13 10:12:38;;;;;;;;;23.33;20.67;;;;;13.98;44.09;103688.09;5091193;27;45609;-87
2022/01/13 10:17:54;;;;;;;;;27.33;24.33;;;;;14.07;43.72;103711.81;5077312;27;45461;-88
2022/01/13 10:20:21;;;;;;;;;29.67;25.00;;;;;14.15;44.17;103721.34;5088610;27;45450;-87
2022/01/13 10:22:46;;;;;;;;;23.33;23.00;;;;;14.14;44.03;103722.31;5052682;28;45675;-87
2022/01/13 10:25:31;;;;;;;;;27.00;25.33;;;;;14.16;44.29;103723.13;5063009;28;45568;-86
2022/01/13 10:28:20;;;;;;;;;29.33;27.00;;;;;14.12;43.89;103705.44;5058950;28;45535;-88
2022/01/13 10:30:50;;;;;;;;;26.00;21.67;;;;;14.05;44.03;103689.66;5067805;28;45755;-86
2022/01/13 10:33:23;;;;;;;;;22.33;20.67;;;;;14.11;44.27;103699.25;5050572;28;45564;-86
2022/01/13 10:35:50;;;;;;;;;21.67;19.67;;;;;14.11;44.36;103693.91;5056126;28;45523;-87
2022/01/13 10:38:16;;;;;;;;;30.67;28.00;;;;;14.06;43.62;103686.03;5049087;28;45803;-86
2022/01/13 10:40:47;;;;;;;;;26.00;23.67;;;;;13.89;44.17;103651.94;5048418;28;45526;-85
2022/01/13 10:43:15;;;;;;;;;22.67;20.67;;;;;14.08;44.19;103678.00;5064870;28;45526;-87
2022/01/13 10:45:54;;;;;;;;;21.67;21.67;;;;;14.20;44.20;103706.03;5071392;27;48197;-86
2022/01/13 10:48:27;;;;;;;;;28.67;22.33;;;;;14.18;43.91;103697.22;5052561;28;45519;-86
2022/01/13 10:51:01;;;;;;;;;26.00;23.00;;;;;14.16;44.42;103697.28;5106077;27;45515;-86
2022/01/13 10:53:29;;;;;;;;;23.67;21.00;;;;;14.21;44.25;103696.22;5078262;27;45558;-86
2022/01/13 10:55:59;;;;;;;;;24.67;22.67;;;;;14.21;44.40;103699.78;5069555;28;45543;-86
2022/01/13 10:58:32;;;;;;;;;19.33;17.00;;;;;14.28;44.98;103695.97;5041259;28;45470;-86
2022/01/13 11:00:58;;;;;;;;;20.33;18.67;;;;;14.24;44.88;103664.97;5067810;27;45608;-85
2022/01/13 11:03:25;;;;;;;;;27.00;22.00;;;;;14.37;44.36;103675.22;5043287;28;45610;-85
2022/01/13 11:05:58;;;;;;;;;28.33;22.67;;;;;14.51;44.21;103691.56;5074079;27;46268;-86
2022/01/13 11:08:28;;;;;;;;;25.67;23.00;;;;;14.33;43.96;103661.09;5079158;27;45512;-86
2022/01/13 11:10:55;;;;;;;;;22.33;22.33;;;;;14.54;44.17;103690.63;5067130;28;45399;-85
2022/01/13 11:13:21;;;;;;;;;21.00;21.00;;;;;14.36;44.87;103657.44;5067896;28;45570;-86
2022/01/13 11:15:51;;;;;;;;;22.33;21.33;;;;;14.44;44.25;103671.38;5066001;27;46195;-86
2022/01/13 11:18:19;;;;;;;;;21.33;21.33;;;;;14.37;44.38;103661.84;5074782;28;45427;-85
2022/01/13 11:20:45;;;;;;;;;30.00;28.00;;;;;14.62;44.48;103698.34;5065218;27;45527;-85
2022/01/13 11:23:11;;;;;;;;;25.00;23.33;;;;;14.31;44.54;103640.72;5059571;28;45456;-85
2022/01/13 11:25:37;;;;;;;;;26.33;24.67;;;;;14.53;44.79;103677.28;5070106;28;49028;-86
2022/01/13 11:28:03;;;;;;;;;24.67;22.00;;;;;14.53;44.26;103671.94;5049866;28;45721;-85
2022/01/13 11:30:29;;;;;;;;;21.00;20.33;;;;;14.43;44.12;103648.25;5054121;28;45835;-86
2022/01/13 11:32:56;;;;;;;;;27.00;23.00;;;;;14.37;44.67;103640.47;5069089;28;45566;-85
2022/01/13 11:35:26;;;;;;;;;21.67;21.67;;;;;14.37;44.19;103627.97;5064329;28;45742;-85
2022/01/13 11:37:51;;;;;;;;;23.67;21.00;;;;;14.27;44.46;103608.78;5075818;28;45182;-85
2022/01/13 11:40:26;;;;;;;;;23.67;21.67;;;;;14.61;44.86;103675.22;5071694;28;45336;-86
2022/01/13 11:42:51;;;;;;;;;26.00;24.00;;;;;14.46;44.49;103650.81;5082559;27;45723;-84
2022/01/13 11:45:17;;;;;;;;;24.00;23.67;;;;;14.62;44.91;103666.28;5068707;28;46258;-83
2022/01/13 11:47:43;;;;;;;;;25.33;22.33;;;;;14.30;44.25;103610.44;5061449;27;45641;-83
2022/01/13 11:50:20;;;;;;;;;23.67;21.33;;;;;14.27;44.31;103598.09;5060800;28;45532;-83
2022/01/13 11:52:52;;;;;;;;;25.00;22.67;;;;;14.48;44.43;103622.25;5046609;28;45457;-83
2022/01/13 11:55:26;;;;;;;;;20.00;20.00;;;;;14.59;44.62;103637.00;5048801;28;45520;-83
2022/01/13 11:57:52;;;;;;;;;32.67;26.00;;;;;14.58;44.52;103636.13;5081522;27;45482;-84
2022/01/13 12:00:29;;;;;;;;;24.33;24.33;;;;;14.60;44.58;103641.41;5063486;28;45465;-83
2022/01/13 12:02:54;;;;;;;;;26.67;23.33;;;;;14.51;44.49;103619.44;5060661;28;47068;-83
2022/01/13 12:05:21;;;;;;;;;30.67;27.67;;;;;14.50;43.86;103625.72;5047434;28;47168;-83
2022/01/13 12:07:54;;;;;;;;;28.33;25.33;;;;;14.59;44.16;103634.31;5067886;28;45473;-84
2022/01/13 12:10:35;;;;;;;;;27.33;23.00;;;;;14.58;44.48;103627.22;5068183;28;45447;-83
2022/01/13 12:13:05;;;;;;;;;29.00;25.00;;;;;14.50;44.25;103611.50;5070384;27;45720;-83
2022/01/13 12:15:30;;;;;;;;;26.00;24.00;;;;;14.54;44.28;103606.91;5068071;28;45460;-83
2022/01/13 12:18:04;;;;;;;;;37.67;28.67;;;;;14.54;44.20;103606.91;5064455;27;48862;-83
2022/01/13 12:20:43;;;;;;;;;23.33;22.33;;;;;14.36;44.16;103575.50;5062176;27;45765;-85
2022/01/13 12:23:43;;;;;;;;;26.00;24.00;;;;;14.57;44.13;103606.78;5048392;28;45431;-85
2022/01/13 12:26:33;;;;;;;;;22.33;21.67;;;;;14.57;44.23;103614.81;5060246;28;46500;-85
2022/01/13 12:29:12;;;;;;;;;29.67;26.00;;;;;14.56;44.40;103618.41;5064941;27;45659;-85
2022/01/13 12:31:57;;;;;;;;;22.00;20.33;;;;;14.55;44.10;103605.97;5051441;28;45507;-85
2022/01/13 12:34:28;;;;;;;;;26.00;20.00;;;;;14.57;44.04;103604.13;5100773;27;45677;-84
2022/01/13 12:37:17;;;;;;;;;13.50;12.75;;;;;14.48;44.56;103590.19;5088729;27;48598;-84
2022/01/13 12:39:43;;;;;;;;;20.00;15.67;;;;;14.53;44.63;103603.38;5061205;28;45958;-84
2022/01/13 12:42:21;;;;;;;;;22.67;22.33;;;;;14.47;44.92;103599.13;5073087;28;45601;-84
2022/01/13 12:47:31;;;;;;;;;30.33;23.67;;;;;14.41;44.97;103594.00;5070866;28;45580;-84
2022/01/13 12:49:56;;;;;;;;;29.00;26.67;;;;;14.25;45.30;103583.94;5034004;28;45906;-85
2022/01/13 12:52:23;;;;;;;;;25.33;21.33;;;;;14.27;45.48;103582.06;5058288;28;45591;-84
2022/01/13 12:54:48;;;;;;;;;23.33;20.67;;;;;14.19;45.55;103565.47;5071411;28;45584;-84
2022/01/13 12:57:15;;;;;;;;;27.00;23.00;;;;;14.17;45.34;103564.66;5107568;27;45801;-84
2022/01/13 12:59:40;;;;;;;;;21.67;21.33;;;;;14.14;45.36;103567.44;5065702;28;45442;-84
2022/01/13 13:02:06;;;;;;;;;28.00;23.00;;;;;14.23;45.25;103580.41;5066327;28;45487;-84
2022/01/13 13:04:35;;;;;;;;;23.67;23.00;;;;;13.97;45.54;103547.56;5046005;28;45577;-84
2022/01/13 13:07:00;;;;;;;;;25.00;22.67;;;;;14.16;45.61;103579.78;5071271;28;45642;-84
2022/01/13 13:09:28;;;;;;;;;29.33;28.00;;;;;14.17;45.50;103596.69;5060806;28;45533;-84
2022/01/13 13:11:56;;;;;;;;;26.67;24.00;;;;;13.92;45.68;103552.19;5071373;27;45474;-85
2022/01/13 13:17:30;;;;;;;;;30.00;26.67;;;;;14.05;45.54;103582.88;5093313;27;45746;-84
2022/01/13 13:19:55;;;;;;;;;29.67;26.33;;;;;14.09;45.30;103590.75;5061653;28;45536;-84
2022/01/13 13:22:21;;;;;;;;;24.67;23.67;;;;;14.04;45.53;103586.47;5081486;27;45487;-84
2022/01/13 13:24:46;;;;;;;;;31.00;29.00;;;;;13.94;45.65;103563.72;5069024;27;47136;-84
2022/01/13 13:27:11;;;;;;;;;34.33;27.67;;;;;13.94;45.76;103569.03;5097016;27;49580;-84
2022/01/13 13:29:37;;;;;;;;;33.33;30.00;;;;;14.07;45.65;103588.13;5067849;27;45652;-84
2022/01/13 13:32:02;;;;;;;;;36.67;30.67;;;;;13.92;44.86;103560.19;5059628;28;47562;-84
2022/01/13 13:34:29;;;;;;;;;32.67;29.67;;;;;13.87;45.15;103546.16;5078903;27;45696;-84
2022/01/13 13:36:54;;;;;;;;;36.33;30.00;;;;;14.05;44.36;103565.97;5094488;27;45657;-83
2022/01/13 13:39:23;;;;;;;;;34.00;30.67;;;;;14.04;44.45;103570.44;5061749;27;45462;-84
2022/01/13 13:41:50;;;;;;;;;32.00;29.00;;;;;13.88;44.54;103537.22;5064852;28;45598;-82
2022/01/13 13:44:21;;;;;;;;;32.67;30.00;;;;;14.05;44.97;103577.53;5068422;28;45537;-85
2022/01/13 13:46:48;;;;;;;;;34.00;29.00;;;;;14.03;44.38;103576.69;5050973;28;45500;-85
2022/01/13 13:49:13;;;;;;;;;39.33;32.33;;;;;14.00;44.67;103563.47;5068747;28;45510;-83
2022/01/13 13:51:39;;;;;;;;;29.00;27.67;;;;;14.10;44.17;103560.47;5106484;27;46043;-83
2022/01/13 13:54:07;;;;;;;;;25.00;24.33;;;;;14.16;44.66;103565.56;5072292;28;45355;-83
2022/01/13 13:57:01;;;;;;;;;32.67;28.33;;;;;14.16;44.70;103563.78;5068350;28;46151;-83
2022/01/13 13:59:36;;;;;;;;;27.67;20.00;;;;;14.21;44.39;103571.59;5071849;27;45630;-83
2022/01/13 14:02:03;;;;;;;;;19.00;18.33;;;;;14.22;44.20;103567.13;5072699;27;45441;-83
2022/01/13 14:04:37;;;;;;;;;30.00;26.00;;;;;14.21;44.77;103565.38;5085021;27;51255;-84
2022/01/13 14:07:03;;;;;;;;;29.00;28.00;;;;;14.10;45.00;103550.66;5051021;28;45994;-83
2022/01/13 14:09:38;;;;;;;;;31.33;29.00;;;;;14.11;44.90;103564.88;5070381;28;45739;-83
2022/01/13 14:12:04;;;;;;;;;30.00;28.67;;;;;14.13;44.47;103560.34;5045851;28;45442;-83
2022/01/13 14:14:37;;;;;;;;;31.00;26.33;;;;;13.97;44.43;103536.88;5061226;28;45648;-83
2022/01/13 14:17:03;;;;;;;;;31.33;25.00;;;;;14.00;44.68;103547.44;5068997;27;46356;-84
2022/01/13 14:19:28;;;;;;;;;32.00;29.33;;;;;13.85;44.31;103517.72;5088432;27;45578;-83
2022/01/13 14:21:54;;;;;;;;;30.67;29.00;;;;;14.13;44.80;103569.22;5086562;27;45683;-84
2022/01/13 14:24:33;;;;;;;;;30.00;28.33;;;;;14.02;44.65;103540.28;5077187;27;45964;-86
2022/01/13 14:27:15;;;;;;;;;6.50;6.50;;;;;14.09;45.29;103559.56;5091554;27;45504;-91
2022/01/13 14:29:41;;;;;;;;;11.25;9.75;;;;;13.88;44.50;103526.56;5041772;28;45471;-91
2022/01/13 14:32:14;;;;;;;;;5.00;5.00;;;;;13.78;44.41;103526.88;5055018;28;45752;-91
2022/01/13 14:34:44;;;;;;;;;11.50;8.50;;;;;13.87;44.91;103551.50;5065596;28;45485;-91
2022/01/13 14:37:09;;;;;;;;;8.00;8.00;;;;;13.98;44.95;103584.00;5053374;28;48020;-91
2022/01/13 14:39:35;;;;;;;;;12.75;10.50;;;;;13.63;44.91;103536.31;5083135;27;45413;-91
2022/01/13 14:42:00;;;;;;;;;8.50;7.00;;;;;13.66;44.88;103546.88;5078498;27;45458;-91
2022/01/13 14:44:25;;;;;;;;;5.75;5.75;;;;;13.85;45.11;103587.09;5031656;28;45546;-92
2022/01/13 14:46:52;;;;;;;;;10.50;8.25;;;;;13.80;45.39;103575.72;5047429;28;46197;-91
2022/01/13 14:49:18;;;;;;;;;11.25;9.50;;;;;13.53;45.41;103535.75;5088247;27;45651;-91
2022/01/13 14:51:47;;;;;;;;;12.00;10.00;;;;;13.49;45.27;103537.63;5072690;28;45418;-91
2022/01/13 14:54:12;;;;;;;;;7.75;6.00;;;;;13.58;45.99;103563.16;5041655;28;45565;-91
2022/01/13 14:56:38;;;;;;;;;7.75;7.75;;;;;13.54;45.47;103561.47;5035406;28;46906;-91
2022/01/13 14:59:10;;;;;;;;;11.00;10.67;;;;;13.46;45.71;103552.88;5049228;28;45436;-93
2022/01/13 15:01:37;;;;;;;;;7.67;7.00;;;;;13.57;45.88;103577.38;5059129;28;45386;-94
2022/01/13 15:04:03;;;;;;;;;7.25;7.25;;;;;13.41;45.85;103556.59;5073774;27;45625;-92
2022/01/13 15:06:29;;;;;;;;;7.25;7.25;;;;;13.27;45.58;103538.38;5062279;28;47841;-92
2022/01/13 15:08:55;;;;;;;;;11.67;10.00;;;;;13.35;46.06;103551.44;5067590;28;45402;-93
2022/01/13 15:11:21;;;;;;;;;6.00;6.00;;;;;13.41;45.99;103569.91;5067609;27;45451;-92
2022/01/13 15:13:47;;;;;;;;;6.00;6.00;;;;;13.50;46.14;103586.53;5056085;28;45491;-92
2022/01/13 15:16:15;;;;;;;;;6.00;6.00;;;;;13.30;45.42;103553.41;5066141;28;47130;-92
2022/01/13 15:18:41;;;;;;;;;7.75;7.25;;;;;13.19;45.60;103546.63;5058902;28;45485;-92
2022/01/13 15:21:06;;;;;;;;;9.50;8.00;;;;;13.19;45.65;103554.63;5055568;28;45703;-92
2022/01/13 15:23:32;;;;;;;;;8.33;8.00;;;;;13.25;45.60;103566.03;5071291;27;45542;-92
2022/01/13 15:25:58;;;;;;;;;7.67;6.67;;;;;13.33;46.03;103587.97;5050735;28;47632;-93
2022/01/13 15:28:23;;;;;;;;;5.75;5.75;;;;;13.08;45.85;103546.16;5054750;28;45572;-92
2022/01/13 15:30:50;;;;;;;;;9.00;6.67;;;;;13.14;45.73;103559.25;5076243;27;45505;-91
2022/01/13 15:33:15;;;;;;;;;5.00;4.50;;;;;13.17;45.92;103580.47;5054936;28;45546;-92
2022/01/13 15:35:44;;;;;;;;;8.00;8.00;;;;;13.04;46.00;103555.16;5069322;28;46750;-91
2022/01/13 15:38:10;;;;;;;;;7.00;6.00;;;;;13.21;46.22;103591.03;5071102;28;45356;-92
2022/01/13 15:40:36;;;;;;;;;10.33;8.33;;;;;13.21;45.90;103591.03;5073526;27;45358;-93
2022/01/13 15:43:01;;;;;;;;;7.00;7.00;;;;;13.07;46.42;103568.38;5047352;28;45546;-92
2022/01/13 15:45:27;;;;;;;;;7.33;7.00;;;;;13.00;45.78;103561.50;5079953;27;47469;-93
2022/01/13 15:47:52;;;;;;;;;9.33;7.00;;;;;13.10;46.09;103578.94;5072098;28;45401;-94
2022/01/13 15:50:19;;;;;;;;;7.67;7.67;;;;;13.06;46.55;103572.84;5033300;28;45338;-93
2022/01/13 15:52:45;;;;;;;;;9.00;8.00;;;;;12.94;45.74;103560.78;5074864;27;45705;-93
2022/01/13 15:55:11;;;;;;;;;5.33;5.33;;;;;13.08;46.20;103583.47;5072196;28;47237;-94
2022/01/13 15:57:36;;;;;;;;;7.33;7.33;;;;;13.05;45.91;103576.41;5105015;27;50412;-94
2022/01/13 16:00:05;;;;;;;;;8.00;7.00;;;;;13.06;46.11;103578.16;5072220;27;45468;-93
2022/01/13 16:02:30;;;;;;;;;8.67;8.67;;;;;12.92;46.25;103559.97;5068326;27;45470;-93
2022/01/13 16:04:56;;;;;;;;;8.00;6.00;;;;;13.00;46.01;103578.34;5028565;28;46713;-93
2022/01/13 16:07:21;;;;;;;;;7.00;6.00;;;;;12.90;45.89;103569.81;5023957;28;45442;-93
2022/01/13 16:09:47;;;;;;;;;7.00;6.00;;;;;13.01;46.07;103587.22;5084343;27;45508;-93
2022/01/13 16:12:12;;;;;;;;;8.67;8.33;;;;;13.01;45.67;103581.91;5058105;28;45529;-93
2022/01/13 16:14:39;;;;;;;;;10.00;8.00;;;;;12.98;45.89;103590.88;5072739;28;48276;-93
2022/01/13 16:17:05;;;;;;;;;8.00;7.00;;;;;13.06;46.00;103603.94;5057568;28;45830;-94
2022/01/13 16:19:31;;;;;;;;;7.75;7.50;;;;;12.89;46.14;103578.69;5053709;28;45503;-93
2022/01/13 16:21:56;;;;;;;;;8.00;6.00;;;;;13.05;46.17;103602.22;5055609;28;45636;-86
2022/01/13 16:24:22;;;;;;;;;8.67;7.00;;;;;12.95;45.89;103581.19;5077457;28;45485;-92
2022/01/13 16:26:47;;;;;;;;;7.50;7.00;;;;;12.93;46.18;103588.34;5074275;27;45583;-87
2022/01/13 16:29:48;;;;;;;;;6.00;6.00;;;;;13.15;45.97;103618.78;5082902;27;46691;-91
2022/01/13 16:32:13;;;;;;;;;6.00;6.00;;;;;12.98;45.86;103601.53;5071198;28;45601;-92
2022/01/13 16:34:39;;;;;;;;;7.00;5.25;;;;;13.01;45.67;103608.56;5076958;28;47472;-92
2022/01/13 16:37:04;;;;;;;;;9.33;7.67;;;;;12.90;45.63;103604.44;5039076;28;45947;-91
2022/01/13 16:39:30;;;;;;;;;5.75;5.50;;;;;12.89;45.76;103605.34;5064052;28;45538;-91
2022/01/13 16:42:01;;;;;;;;;6.75;5.75;;;;;12.90;45.82;103609.78;5060683;28;45387;-92
2022/01/13 16:44:26;;;;;;;;;5.50;5.50;;;;;13.05;45.75;103635.06;5076765;28;47734;-92
2022/01/13 16:46:52;;;;;;;;;5.50;3.25;;;;;12.97;45.56;103626.44;5069450;28;45492;-91
2022/01/13 16:49:17;;;;;;;;;6.50;6.50;;;;;13.02;45.79;103634.28;5058717;28;45394;-91
2022/01/13 16:51:43;;;;;;;;;6.50;5.50;;;;;12.78;45.18;103599.47;5048734;28;45317;-90
2022/01/13 16:54:08;;;;;;;;;6.00;6.00;;;;;12.81;45.65;103607.38;5090802;27;45658;-89
2022/01/13 16:56:34;;;;;;;;;7.00;6.75;;;;;12.71;45.28;103605.00;5051249;28;45513;-89
2022/01/13 16:58:59;;;;;;;;;5.00;5.00;;;;;12.68;45.30;103605.09;5081632;27;45575;-92
2022/01/13 17:11:38;;;;;;;;;5.75;5.75;;;;;12.64;45.13;103603.44;4929394;28;45819;-89
2022/01/13 17:14:04;;;;;;;;;7.33;7.33;;;;;12.51;45.67;103582.50;4914934;28;45574;-90
2022/01/13 17:16:53;;;;;;;;;;;;;;;;;;;;;
2022/01/13 17:20:15;;;;;;;;;4.67;4.67;;;;;12.57;45.50;103601.88;4914568;28;73060;-90
2022/01/13 17:26:14;;;;;;;;;3.75;3.75;;;;;12.55;45.57;103617.03;4854241;29;45573;-91
2022/01/13 17:29:09;;;;;;;;;8.00;5.00;;;;;12.38;45.09;103586.44;4844429;29;46877;-92
2022/01/13 17:35:02;;;;;;;;;8.33;7.00;;;;;12.34;45.62;103584.78;4879033;29;45627;-91
2022/01/13 17:44:05;;;;;;;;;7.67;4.67;;;;;12.31;45.43;103597.28;5456649;22;45795;-90
2022/01/13 18:06:46;;;;;;;;;;;;;;;;;;;;;
2022/01/13 18:12:10;;;;;;;;;4.33;4.33;;;;;12.00;45.51;103592.78;5420670;22;45831;-92
2022/01/13 18:25:45;;;;;;;;;5.00;5.00;;;;;12.07;45.30;103636.97;5014672;28;45480;-93
2022/01/13 18:32:37;;;;;;;;;5.33;5.33;;;;;11.75;45.38;103609.41;5029796;28;45601;-94
2022/01/13 18:35:48;;;;;;;;;5.00;4.00;;;;;11.88;45.18;103642.75;5004565;28;45665;-92
2022/01/13 18:50:08;;;;;;;;;5.33;4.00;;;;;11.31;45.23;103595.41;4963912;28;47542;-93
2022/01/13 18:53:10;;;;;;;;;;;;;;;;;;;;;
2022/01/13 18:56:59;;;;;;;;;;;;;;;;;;;;;
2022/01/13 18:59:29;;;;;;;;;6.00;6.00;;;;;11.40;45.52;103631.53;4970847;28;75614;-92
2022/01/13 19:02:15;;;;;;;;;6.00;6.00;;;;;11.29;45.98;103609.66;4946223;28;45564;-93
2022/01/13 19:05:56;;;;;;;;;6.33;6.33;;;;;11.42;45.70;103645.66;4997765;28;45879;-94
2022/01/13 19:23:37;;;;;;;;;;;;;;;;;;;;;
2022/01/13 20:00:10;;;;;;;;;5.33;5.33;;;;;10.71;46.02;103585.28;6254495;22;45797;-90
2022/01/13 21:02:44;;;;;;;;;5.33;4.00;;;;;10.34;46.86;103593.09;6276149;22;45922;-94
2022/01/13 21:05:10;;;;;;;;;7.67;5.67;;;;;10.31;46.43;103586.97;6224178;22;46840;-89
2022/01/13 21:07:36;;;;;;;;;7.33;4.67;;;;;10.48;46.80;103615.81;6248381;22;45416;-87
2022/01/13 21:10:01;;;;;;;;;5.33;5.00;;;;;10.54;46.68;103626.34;6276842;22;45405;-94
2022/01/13 21:12:27;;;;;;;;;6.67;6.67;;;;;10.30;46.51;103580.78;6221970;22;45257;-90
2022/01/13 21:17:54;;;;;;;;;6.67;4.33;;;;;10.55;46.42;103625.47;6382223;22;46268;-90
2022/01/13 21:20:20;;;;;;;;;2.67;2.67;;;;;10.40;46.87;103593.88;6341384;22;45400;-88
2022/01/13 21:23:22;;;;;;;;;2.33;2.33;;;;;10.53;46.46;103629.91;6368307;22;45384;-90
2022/01/13 21:26:44;;;;;;;;;;;;;;;;;;;;;
2022/01/13 21:29:48;;;;;;;;;5.67;5.67;;;;;10.31;46.71;103589.63;6295153;22;72908;-90
2022/01/13 21:36:14;;;;;;;;;5.33;3.33;;;;;10.15;47.17;103559.88;6290729;22;45571;-89
2022/01/13 21:42:20;;;;;;;;;5.67;5.67;;;;;10.44;47.14;103622.13;6189113;22;45529;-91
2022/01/13 21:45:11;;;;;;;;;6.33;5.00;;;;;10.43;46.95;103623.88;6217034;22;45460;-91
2022/01/13 21:48:29;;;;;;;;;7.67;6.00;;;;;10.17;46.99;103580.16;6233982;22;45413;-91
2022/01/13 21:51:07;;;;;;;;;6.33;4.00;;;;;10.29;46.68;103605.59;6168700;23;47704;-90
2022/01/13 21:53:49;;;;;;;;;5.00;5.00;;;;;10.22;46.93;103593.31;6128021;23;45693;-91
2022/01/13 21:56:33;;;;;;;;;5.00;4.00;;;;;10.11;46.95;103585.59;6154776;23;45497;-91
2022/01/13 21:59:41;;;;;;;;;5.00;5.00;;;;;10.15;46.98;103591.72;6151323;23;45342;-91
2022/01/13 22:02:43;;;;;;;;;5.00;5.00;;;;;10.21;47.01;103612.84;6130368;23;45593;-90
2022/01/13 22:05:20;;;;;;;;;;;;;;;;;;;;;
2022/01/13 22:11:05;;;;;;;;;;;;;;;;;;;;;
2022/01/13 22:18:14;;;;;;;;;;;;;;;;;;;;;
2022/01/13 22:27:37;;;;;;;;;6.00;6.00;;;;;10.23;47.37;103603.06;6050975;23;46550;-90
2022/01/13 22:30:07;;;;;;;;;6.00;4.33;;;;;10.17;47.44;103595.19;6044968;23;45370;-90
2022/01/13 22:32:32;;;;;;;;;6.00;6.00;;;;;10.29;47.16;103621.50;6070358;23;45481;-90
2022/01/13 22:34:58;;;;;;;;;9.67;7.33;;;;;10.22;47.38;103598.63;6097758;23;45522;-89
2022/01/13 22:37:24;;;;;;;;;5.67;5.00;;;;;10.40;47.81;103623.06;6152089;22;47709;-90
2022/01/13 22:39:49;;;;;;;;;6.00;6.00;;;;;10.21;47.60;103591.59;6187667;22;45449;-90
2022/01/13 22:42:16;;;;;;;;;4.00;4.00;;;;;10.31;47.45;103603.78;6188007;22;45431;-90
2022/01/13 22:44:43;;;;;;;;;8.00;7.00;;;;;10.43;47.06;103615.03;6187977;22;45580;-90
2022/01/13 22:47:09;;;;;;;;;5.67;5.67;;;;;10.47;47.01;103618.53;6187275;22;47095;-90
2022/01/13 22:49:37;;;;;;;;;9.67;6.67;;;;;10.47;47.23;103618.53;6188339;22;45300;-90
2022/01/13 22:52:04;;;;;;;;;8.00;6.67;;;;;10.46;46.94;103614.97;6188173;22;45507;-91
2022/01/13 22:54:29;;;;;;;;;7.67;6.00;;;;;10.61;47.10;103642.16;6187924;22;45458;-89
2022/01/13 22:56:55;;;;;;;;;7.00;7.00;;;;;10.44;47.01;103606.19;6187724;22;46903;-90
2022/01/13 22:59:20;;;;;;;;;7.00;7.00;;;;;10.60;47.46;103645.72;6192252;22;45862;-91
2022/01/13 23:01:46;;;;;;;;;7.00;7.00;;;;;10.42;47.30;103615.94;6343585;22;45653;-90
2022/01/13 23:04:11;;;;;;;;;6.00;6.00;;;;;10.49;47.15;103617.59;6345369;22;45285;-89
2022/01/13 23:06:37;;;;;;;;;7.00;7.00;;;;;10.48;47.30;103614.94;6371199;22;46175;-90